sensor_id;sensor_type;location;lat;lon;timestamp;pressure;altitude;pressure_sealevel;temperature;humidity
19096;BME280;9680;52.520;13.332;2023-02-20T00:01:30;101893.31;;;3.08;77.73
19096;BME280;9680;52.520;13.332;2023-02-20T00:03:57;101887.31;;;3.07;77.74
19096;BME280;9680;52.520;13.332;2023-02-20T00:06:24;101891.59;;;3.06;77.82
19096;BME280;9680;52.520;13.332;2023-02-20T00:08:51;101888.97;;;3.03;78.03
19096;BME280;9680;52.520;13.332;2023-02-20T00:11:18;101892.47;;;3.07;78.10
19096;BME280;9680;52.520;13.332;2023-02-20T00:13:47;101890.75;;;3.06;78.19
19096;BME280;9680;52.520;13.332;2023-02-20T00:16:15;101882.16;;;3.07;78.28
19096;BME280;9680;52.520;13.332;2023-02-20T00:18:43;101878.72;;;3.06;78.24
19096;BME280;9680;52.520;13.332;2023-02-20T00:21:10;101874.41;;;3.04;78.37
19096;BME280;9680;52.520;13.332;2023-02-20T00:23:37;101888.97;;;3.03;78.30
19096;BME280;9680;52.520;13.332;2023-02-20T00:26:07;101876.97;;;3.02;78.40
19096;BME280;9680;52.520;13.332;2023-02-20T00:28:36;101864.09;;;3.01;78.53
19096;BME280;9680;52.520;13.332;2023-02-20T00:31:06;101859.78;;;3.00;78.66
19096;BME280;9680;52.520;13.332;2023-02-20T00:33:35;101858.91;;;2.99;78.71
19096;BME280;9680;52.520;13.332;2023-02-20T00:36:02;101858.03;;;2.97;78.82
19096;BME280;9680;52.520;13.332;2023-02-20T00:38:29;101855.41;;;2.94;78.72
19096;BME280;9680;52.520;13.332;2023-02-20T00:40:56;101855.38;;;2.92;79.03
19096;BME280;9680;52.520;13.332;2023-02-20T00:43:23;101863.09;;;2.92;79.00
19096;BME280;9680;52.520;13.332;2023-02-20T00:45:50;101851.06;;;2.90;79.21
19096;BME280;9680;52.520;13.332;2023-02-20T00:48:18;101845.91;;;2.88;79.29
19096;BME280;9680;52.520;13.332;2023-02-20T00:50:45;101846.78;;;2.89;79.27
19096;BME280;9680;52.520;13.332;2023-02-20T00:53:13;101847.63;;;2.88;79.42
19096;BME280;9680;52.520;13.332;2023-02-20T00:55:40;101854.50;;;2.89;79.67
19096;BME280;9680;52.520;13.332;2023-02-20T00:58:06;101850.19;;;2.88;79.54
19096;BME280;9680;52.520;13.332;2023-02-20T01:00:33;101833.91;;;2.90;79.80
19096;BME280;9680;52.520;13.332;2023-02-20T01:03:00;101829.66;;;2.94;80.06
19096;BME280;9680;52.520;13.332;2023-02-20T01:05:29;101833.19;;;3.01;80.20
19096;BME280;9680;52.520;13.332;2023-02-20T01:07:57;101831.56;;;3.11;80.28
19096;BME280;9680;52.520;13.332;2023-02-20T01:10:25;101830.81;;;3.19;80.24
19096;BME280;9680;52.520;13.332;2023-02-20T01:12:52;101825.72;;;3.29;79.92
19096;BME280;9680;52.520;13.332;2023-02-20T01:15:18;101819.78;;;3.34;79.68
19096;BME280;9680;52.520;13.332;2023-02-20T01:17:45;101819.84;;;3.42;79.57
19096;BME280;9680;52.520;13.332;2023-02-20T01:20:12;101811.28;;;3.46;79.35
19096;BME280;9680;52.520;13.332;2023-02-20T01:22:40;101806.19;;;3.53;79.13
19096;BME280;9680;52.520;13.332;2023-02-20T01:25:09;101800.22;;;3.60;79.03
19096;BME280;9680;52.520;13.332;2023-02-20T01:27:36;101801.97;;;3.62;78.76
19096;BME280;9680;52.520;13.332;2023-02-20T01:30:03;101795.13;;;3.64;78.47
19096;BME280;9680;52.520;13.332;2023-02-20T01:32:30;101787.41;;;3.64;78.68
19096;BME280;9680;52.520;13.332;2023-02-20T01:34:57;101787.44;;;3.69;78.58
19096;BME280;9680;52.520;13.332;2023-02-20T01:37:24;101777.19;;;3.75;78.43
19096;BME280;9680;52.520;13.332;2023-02-20T01:39:52;101768.63;;;3.79;78.23
19096;BME280;9680;52.520;13.332;2023-02-20T01:42:22;101760.03;;;3.84;78.31
19096;BME280;9680;52.520;13.332;2023-02-20T01:44:53;101769.53;;;3.91;78.27
19096;BME280;9680;52.520;13.332;2023-02-20T01:47:22;101758.34;;;3.90;77.96
19096;BME280;9680;52.520;13.332;2023-02-20T01:49:51;101748.94;;;3.94;77.94
19096;BME280;9680;52.520;13.332;2023-02-20T01:52:23;101758.41;;;3.98;77.85
19096;BME280;9680;52.520;13.332;2023-02-20T01:54:55;101755.00;;;4.01;77.94
19096;BME280;9680;52.520;13.332;2023-02-20T01:57:26;101745.56;;;4.04;77.82
19096;BME280;9680;52.520;13.332;2023-02-20T01:59:56;101730.09;;;4.07;77.68
19096;BME280;9680;52.520;13.332;2023-02-20T02:02:26;101720.63;;;4.06;77.68
19096;BME280;9680;52.520;13.332;2023-02-20T02:04:54;101718.06;;;4.08;77.75
19096;BME280;9680;52.520;13.332;2023-02-20T02:07:22;101712.06;;;4.12;77.71
19096;BME280;9680;52.520;13.332;2023-02-20T02:09:55;101707.75;;;4.13;77.53
19096;BME280;9680;52.520;13.332;2023-02-20T02:12:27;101705.19;;;4.13;77.72
19096;BME280;9680;52.520;13.332;2023-02-20T02:14:54;101713.78;;;4.15;77.60
19096;BME280;9680;52.520;13.332;2023-02-20T02:17:45;101701.75;;;4.14;77.42
19096;BME280;9680;52.520;13.332;2023-02-20T02:20:48;101706.91;;;4.17;77.47
19096;BME280;9680;52.520;13.332;2023-02-20T02:23:52;101708.66;;;4.19;77.54
19096;BME280;9680;52.520;13.332;2023-02-20T02:26:51;101711.25;;;4.22;77.52
19096;BME280;9680;52.520;13.332;2023-02-20T02:32:55;101703.50;;;4.27;77.34
19096;BME280;9680;52.520;13.332;2023-02-20T02:36:03;101695.78;;;4.30;77.39
19096;BME280;9680;52.520;13.332;2023-02-20T02:38:37;101697.56;;;4.34;77.30
19096;BME280;9680;52.520;13.332;2023-02-20T02:41:14;101685.50;;;4.36;77.25
19096;BME280;9680;52.520;13.332;2023-02-20T02:43:50;101676.94;;;4.41;77.36
19096;BME280;9680;52.520;13.332;2023-02-20T02:46:24;101674.34;;;4.44;77.45
19096;BME280;9680;52.520;13.332;2023-02-20T02:48:57;101664.88;;;4.47;77.44
19096;BME280;9680;52.520;13.332;2023-02-20T02:51:33;101667.50;;;4.52;77.48
19096;BME280;9680;52.520;13.332;2023-02-20T02:54:07;101669.19;;;4.55;77.44
19096;BME280;9680;52.520;13.332;2023-02-20T02:56:35;101658.88;;;4.56;77.58
19096;BME280;9680;52.520;13.332;2023-02-20T02:59:03;101653.72;;;4.59;77.66
19096;BME280;9680;52.520;13.332;2023-02-20T03:01:33;101668.38;;;4.65;77.53
19096;BME280;9680;52.520;13.332;2023-02-20T03:04:05;101656.34;;;4.67;77.68
19096;BME280;9680;52.520;13.332;2023-02-20T03:06:37;101648.56;;;4.72;77.58
19096;BME280;9680;52.520;13.332;2023-02-20T03:09:07;101646.84;;;4.71;77.54
19096;BME280;9680;52.520;13.332;2023-02-20T03:11:37;101643.44;;;4.70;77.54
19096;BME280;9680;52.520;13.332;2023-02-20T03:14:06;101633.97;;;4.72;77.64
19096;BME280;9680;52.520;13.332;2023-02-20T03:16:57;101632.22;;;4.76;77.75
19096;BME280;9680;52.520;13.332;2023-02-20T03:19:29;101625.34;;;4.78;77.67
19096;BME280;9680;52.520;13.332;2023-02-20T03:22:01;101619.31;;;4.82;77.83
19096;BME280;9680;52.520;13.332;2023-02-20T03:24:31;101622.75;;;4.87;77.76
19096;BME280;9680;52.520;13.332;2023-02-20T03:27:22;101613.31;;;4.88;77.85
19096;BME280;9680;52.520;13.332;2023-02-20T03:29:51;101610.72;;;4.89;77.81
19096;BME280;9680;52.520;13.332;2023-02-20T03:32:22;101590.94;;;4.90;77.88
19096;BME280;9680;52.520;13.332;2023-02-20T03:35:09;101587.47;;;4.92;77.93
19096;BME280;9680;52.520;13.332;2023-02-20T03:37:57;101586.59;;;4.93;77.76
19096;BME280;9680;52.520;13.332;2023-02-20T03:40:43;101589.19;;;4.96;77.90
19096;BME280;9680;52.520;13.332;2023-02-20T03:43:29;101588.34;;;5.01;77.90
19096;BME280;9680;52.520;13.332;2023-02-20T03:46:01;101583.19;;;5.01;77.98
19096;BME280;9680;52.520;13.332;2023-02-20T03:48:33;101578.00;;;5.02;77.92
19096;BME280;9680;52.520;13.332;2023-02-20T03:51:03;101589.19;;;5.04;77.92
19096;BME280;9680;52.520;13.332;2023-02-20T03:53:56;101590.94;;;5.07;78.13
19096;BME280;9680;52.520;13.332;2023-02-20T03:56:26;101593.50;;;5.07;77.98
19096;BME280;9680;52.520;13.332;2023-02-20T03:58:57;101591.78;;;5.07;78.30
19096;BME280;9680;52.520;13.332;2023-02-20T04:01:27;101596.09;;;5.10;78.07
19096;BME280;9680;52.520;13.332;2023-02-20T04:03:56;101591.78;;;5.09;78.23
19096;BME280;9680;52.520;13.332;2023-02-20T04:06:27;101599.53;;;5.12;78.43
19096;BME280;9680;52.520;13.332;2023-02-20T04:09:01;101595.22;;;5.17;78.55
19096;BME280;9680;52.520;13.332;2023-02-20T04:11:35;101593.47;;;5.19;78.53
19096;BME280;9680;52.520;13.332;2023-02-20T04:14:04;101585.72;;;5.19;78.49
19096;BME280;9680;52.520;13.332;2023-02-20T04:16:34;101573.69;;;5.18;78.63
19096;BME280;9680;52.520;13.332;2023-02-20T04:19:03;101577.09;;;5.22;78.47
19096;BME280;9680;52.520;13.332;2023-02-20T04:21:34;101575.38;;;5.24;78.64
19096;BME280;9680;52.520;13.332;2023-02-20T04:24:08;101574.53;;;5.27;78.77
19096;BME280;9680;52.520;13.332;2023-02-20T04:26:36;101565.88;;;5.29;78.55
19096;BME280;9680;52.520;13.332;2023-02-20T04:29:03;101569.34;;;5.33;78.58
19096;BME280;9680;52.520;13.332;2023-02-20T04:31:32;101556.41;;;5.33;78.72
19096;BME280;9680;52.520;13.332;2023-02-20T04:33:59;101547.78;;;5.34;78.82
19096;BME280;9680;52.520;13.332;2023-02-20T04:36:26;101529.72;;;5.35;78.96
19096;BME280;9680;52.520;13.332;2023-02-20T04:38:56;101538.34;;;5.34;78.95
19096;BME280;9680;52.520;13.332;2023-02-20T04:41:28;101546.06;;;5.37;79.21
19096;BME280;9680;52.520;13.332;2023-02-20T04:43:55;101546.06;;;5.39;79.39
19096;BME280;9680;52.520;13.332;2023-02-20T04:46:36;101533.16;;;5.41;79.43
19096;BME280;9680;52.520;13.332;2023-02-20T04:49:02;101534.88;;;5.42;79.19
19096;BME280;9680;52.520;13.332;2023-02-20T04:51:29;101538.31;;;5.44;79.50
19096;BME280;9680;52.520;13.332;2023-02-20T04:53:56;101533.97;;;5.47;79.28
19096;BME280;9680;52.520;13.332;2023-02-20T04:56:23;101533.13;;;5.47;79.35
19096;BME280;9680;52.520;13.332;2023-02-20T04:58:54;101511.56;;;5.48;79.52
19096;BME280;9680;52.520;13.332;2023-02-20T05:01:22;101509.00;;;5.48;79.58
19096;BME280;9680;52.520;13.332;2023-02-20T05:03:49;101504.69;;;5.50;79.66
19096;BME280;9680;52.520;13.332;2023-02-20T05:06:15;101485.69;;;5.52;79.75
19096;BME280;9680;52.520;13.332;2023-02-20T05:08:42;101493.44;;;5.56;79.75
19096;BME280;9680;52.520;13.332;2023-02-20T05:11:09;101477.06;;;5.57;79.70
19096;BME280;9680;52.520;13.332;2023-02-20T05:13:35;101470.16;;;5.60;79.71
19096;BME280;9680;52.520;13.332;2023-02-20T05:16:04;101464.09;;;5.63;79.94
19096;BME280;9680;52.520;13.332;2023-02-20T05:18:31;101471.88;;;5.66;79.87
19096;BME280;9680;52.520;13.332;2023-02-20T05:20:58;101474.41;;;5.67;80.09
19096;BME280;9680;52.520;13.332;2023-02-20T05:23:42;101464.94;;;5.66;80.03
19096;BME280;9680;52.520;13.332;2023-02-20T05:26:11;101457.19;;;5.68;80.13
19096;BME280;9680;52.520;13.332;2023-02-20T05:28:38;101469.25;;;5.69;80.40
19096;BME280;9680;52.520;13.332;2023-02-20T05:31:07;101466.66;;;5.71;80.50
19096;BME280;9680;52.520;13.332;2023-02-20T05:33:33;101464.91;;;5.73;80.74
19096;BME280;9680;52.520;13.332;2023-02-20T05:36:00;101463.19;;;5.73;80.85
19096;BME280;9680;52.520;13.332;2023-02-20T05:38:27;101467.50;;;5.74;81.04
19096;BME280;9680;52.520;13.332;2023-02-20T05:40:54;101462.31;;;5.77;81.19
19096;BME280;9680;52.520;13.332;2023-02-20T05:43:21;101464.88;;;5.80;81.28
19096;BME280;9680;52.520;13.332;2023-02-20T05:45:48;101465.75;;;5.79;81.35
19096;BME280;9680;52.520;13.332;2023-02-20T05:48:16;101454.53;;;5.80;81.38
19096;BME280;9680;52.520;13.332;2023-02-20T05:50:43;101447.63;;;5.82;81.56
19096;BME280;9680;52.520;13.332;2023-02-20T05:53:16;101443.31;;;5.81;81.59
19096;BME280;9680;52.520;13.332;2023-02-20T05:55:43;101452.78;;;5.82;81.84
19096;BME280;9680;52.520;13.332;2023-02-20T05:58:09;101444.16;;;5.82;81.90
19096;BME280;9680;52.520;13.332;2023-02-20T06:00:36;101443.31;;;5.81;81.99
19096;BME280;9680;52.520;13.332;2023-02-20T06:03:05;101438.16;;;5.78;82.23
19096;BME280;9680;52.520;13.332;2023-02-20T06:05:33;101420.94;;;5.77;82.33
19096;BME280;9680;52.520;13.332;2023-02-20T06:08:00;101416.59;;;5.81;82.47
19096;BME280;9680;52.520;13.332;2023-02-20T06:10:27;101401.06;;;5.82;82.49
19096;BME280;9680;52.520;13.332;2023-02-20T06:12:53;101407.09;;;5.83;82.62
19096;BME280;9680;52.520;13.332;2023-02-20T06:15:20;101396.75;;;5.85;82.52
19096;BME280;9680;52.520;13.332;2023-02-20T06:17:47;101395.88;;;5.84;82.63
19096;BME280;9680;52.520;13.332;2023-02-20T06:20:14;101387.25;;;5.87;82.86
19096;BME280;9680;52.520;13.332;2023-02-20T06:22:43;101388.94;;;5.89;82.65
19096;BME280;9680;52.520;13.332;2023-02-20T06:25:10;101391.50;;;5.94;82.51
19096;BME280;9680;52.520;13.332;2023-02-20T06:27:37;101396.69;;;5.94;82.61
19096;BME280;9680;52.520;13.332;2023-02-20T06:30:05;101390.63;;;5.95;82.46
19096;BME280;9680;52.520;13.332;2023-02-20T06:32:32;101390.59;;;6.01;82.70
19096;BME280;9680;52.520;13.332;2023-02-20T06:34:59;101379.38;;;6.02;82.30
19096;BME280;9680;52.520;13.332;2023-02-20T06:37:25;101374.22;;;6.02;82.20
19096;BME280;9680;52.520;13.332;2023-02-20T06:39:53;101364.72;;;6.04;82.18
19096;BME280;9680;52.520;13.332;2023-02-20T06:42:20;101357.81;;;6.05;82.20
19096;BME280;9680;52.520;13.332;2023-02-20T06:44:47;101379.38;;;6.07;82.07
19096;BME280;9680;52.520;13.332;2023-02-20T06:47:14;101387.06;;;6.11;82.29
19096;BME280;9680;52.520;13.332;2023-02-20T06:49:41;101377.59;;;6.12;82.42
19096;BME280;9680;52.520;13.332;2023-02-20T06:52:08;101351.66;;;6.17;82.32
19096;BME280;9680;52.520;13.332;2023-02-20T06:54:35;101358.50;;;6.21;82.32
19096;BME280;9680;52.520;13.332;2023-02-20T06:57:04;101358.50;;;6.22;81.83
19096;BME280;9680;52.520;13.332;2023-02-20T06:59:31;101359.34;;;6.24;81.59
19096;BME280;9680;52.520;13.332;2023-02-20T07:02:04;101362.78;;;6.25;81.54
19096;BME280;9680;52.520;13.332;2023-02-20T07:04:31;101370.56;;;6.26;81.55
19096;BME280;9680;52.520;13.332;2023-02-20T07:07:00;101361.03;;;6.30;81.55
19096;BME280;9680;52.520;13.332;2023-02-20T07:09:27;101347.16;;;6.36;81.22
19096;BME280;9680;52.520;13.332;2023-02-20T07:11:54;101359.16;;;6.43;81.05
19096;BME280;9680;52.520;13.332;2023-02-20T07:14:22;101322.91;;;6.43;80.96
19096;BME280;9680;52.520;13.332;2023-02-20T07:16:49;101322.03;;;6.44;80.34
19096;BME280;9680;52.520;13.332;2023-02-20T07:19:16;101336.69;;;6.47;80.41
19096;BME280;9680;52.520;13.332;2023-02-20T07:21:45;101340.97;;;6.51;80.18
19096;BME280;9680;52.520;13.332;2023-02-20T07:24:12;101326.25;;;6.54;79.87
19096;BME280;9680;52.520;13.332;2023-02-20T07:26:39;101308.97;;;6.56;79.54
19096;BME280;9680;52.520;13.332;2023-02-20T07:29:06;101321.88;;;6.60;79.33
19096;BME280;9680;52.520;13.332;2023-02-20T07:31:39;101347.75;;;6.63;79.17
19096;BME280;9680;52.520;13.332;2023-02-20T07:34:06;101339.06;;;6.65;78.60
19096;BME280;9680;52.520;13.332;2023-02-20T07:36:36;101333.81;;;6.72;78.30
19096;BME280;9680;52.520;13.332;2023-02-20T07:39:03;101326.88;;;6.75;77.46
19096;BME280;9680;52.520;13.332;2023-02-20T07:41:32;101312.13;;;6.79;77.57
19096;BME280;9680;52.520;13.332;2023-02-20T07:44:02;101309.50;;;6.83;77.53
19096;BME280;9680;52.520;13.332;2023-02-20T07:46:29;101306.00;;;6.86;77.13
19096;BME280;9680;52.520;13.332;2023-02-20T07:49:00;101312.00;;;6.90;77.07
19096;BME280;9680;52.520;13.332;2023-02-20T07:51:32;101282.59;;;6.92;76.94
19096;BME280;9680;52.520;13.332;2023-02-20T07:53:59;101284.31;;;6.95;76.30
19096;BME280;9680;52.520;13.332;2023-02-20T07:56:26;101279.09;;;6.98;76.21
19096;BME280;9680;52.520;13.332;2023-02-20T07:58:53;101276.44;;;7.01;75.69
19096;BME280;9680;52.520;13.332;2023-02-20T08:01:20;101292.00;;;7.01;75.56
19096;BME280;9680;52.520;13.332;2023-02-20T08:03:47;101291.06;;;7.07;75.56
19096;BME280;9680;52.520;13.332;2023-02-20T08:06:16;101290.13;;;7.09;75.20
19096;BME280;9680;52.520;13.332;2023-02-20T08:08:46;101265.00;;;7.16;75.04
19096;BME280;9680;52.520;13.332;2023-02-20T08:11:14;101259.78;;;7.19;74.71
19096;BME280;9680;52.520;13.332;2023-02-20T08:13:41;101255.44;;;7.21;74.42
19096;BME280;9680;52.520;13.332;2023-02-20T08:16:09;101246.78;;;7.22;73.75
19096;BME280;9680;52.520;13.332;2023-02-20T08:18:36;101234.59;;;7.26;74.13
19096;BME280;9680;52.520;13.332;2023-02-20T08:21:03;101239.72;;;7.31;74.27
19096;BME280;9680;52.520;13.332;2023-02-20T08:23:31;101234.44;;;7.37;74.04
19096;BME280;9680;52.520;13.332;2023-02-20T08:25:58;101233.50;;;7.41;73.69
19096;BME280;9680;52.520;13.332;2023-02-20T08:28:26;101220.53;;;7.42;73.38
19096;BME280;9680;52.520;13.332;2023-02-20T08:30:53;101221.34;;;7.45;73.32
19096;BME280;9680;52.520;13.332;2023-02-20T08:33:20;101215.28;;;7.46;73.02
19096;BME280;9680;52.520;13.332;2023-02-20T08:35:47;101210.00;;;7.50;72.99
19096;BME280;9680;52.520;13.332;2023-02-20T08:38:25;101208.25;;;7.52;72.49
19096;BME280;9680;52.520;13.332;2023-02-20T08:40:54;101205.59;;;7.57;72.59
19096;BME280;9680;52.520;13.332;2023-02-20T08:43:21;101187.34;;;7.62;72.37
19096;BME280;9680;52.520;13.332;2023-02-20T08:45:48;101193.31;;;7.67;72.60
19096;BME280;9680;52.520;13.332;2023-02-20T08:48:15;101176.81;;;7.71;72.34
19096;BME280;9680;52.520;13.332;2023-02-20T08:50:42;101173.22;;;7.77;72.08
19096;BME280;9680;52.520;13.332;2023-02-20T08:53:09;101174.88;;;7.82;72.03
19096;BME280;9680;52.520;13.332;2023-02-20T08:55:36;101164.38;;;7.87;71.45
19096;BME280;9680;52.520;13.332;2023-02-20T08:58:04;101166.84;;;7.95;71.43
19096;BME280;9680;52.520;13.332;2023-02-20T09:00:31;101153.66;;;8.04;71.00
19096;BME280;9680;52.520;13.332;2023-02-20T09:02:58;101140.50;;;8.13;71.18
19096;BME280;9680;52.520;13.332;2023-02-20T09:05:25;101153.25;;;8.24;71.23
19096;BME280;9680;52.520;13.332;2023-02-20T09:07:52;101140.19;;;8.29;69.91
19096;BME280;9680;52.520;13.332;2023-02-20T09:10:19;101118.47;;;8.31;69.51
19096;BME280;9680;52.520;13.332;2023-02-20T09:12:46;101125.38;;;8.34;69.48
19096;BME280;9680;52.520;13.332;2023-02-20T09:15:15;101108.75;;;8.41;69.43
19096;BME280;9680;52.520;13.332;2023-02-20T09:17:43;101108.59;;;8.49;69.14
19096;BME280;9680;52.520;13.332;2023-02-20T09:20:11;101106.56;;;8.62;69.08
19096;BME280;9680;52.520;13.332;2023-02-20T09:22:38;101114.13;;;8.71;68.98
19096;BME280;9680;52.520;13.332;2023-02-20T09:25:05;101094.06;;;8.78;68.39
19096;BME280;9680;52.520;13.332;2023-02-20T09:27:32;101091.31;;;8.84;67.93
19096;BME280;9680;52.520;13.332;2023-02-20T09:29:59;101070.31;;;8.92;67.87
19096;BME280;9680;52.520;13.332;2023-02-20T09:32:28;101080.50;;;9.01;67.93
19096;BME280;9680;52.520;13.332;2023-02-20T09:34:55;101063.06;;;9.05;66.98
19096;BME280;9680;52.520;13.332;2023-02-20T09:37:24;101074.88;;;9.17;67.28
19096;BME280;9680;52.520;13.332;2023-02-20T09:39:51;101052.41;;;9.14;65.85
19096;BME280;9680;52.520;13.332;2023-02-20T09:42:28;101061.00;;;9.18;66.48
19096;BME280;9680;52.520;13.332;2023-02-20T09:45:05;101048.53;;;9.31;66.75
19096;BME280;9680;52.520;13.332;2023-02-20T09:47:46;101049.16;;;9.39;65.58
19096;BME280;9680;52.520;13.332;2023-02-20T09:50:25;101043.06;;;9.40;65.69
19096;BME280;9680;52.520;13.332;2023-02-20T09:52:59;101026.59;;;9.40;65.07
19096;BME280;9680;52.520;13.332;2023-02-20T09:55:33;101045.59;;;9.43;65.28
19096;BME280;9680;52.520;13.332;2023-02-20T09:58:02;101039.31;;;9.51;64.77
19096;BME280;9680;52.520;13.332;2023-02-20T10:00:32;101043.69;;;9.49;64.35
19096;BME280;9680;52.520;13.332;2023-02-20T10:03:12;101040.13;;;9.53;64.52
19096;BME280;9680;52.520;13.332;2023-02-20T10:05:42;101044.03;;;9.68;64.93
19096;BME280;9680;52.520;13.332;2023-02-20T10:08:11;101046.88;;;9.88;64.67
19096;BME280;9680;52.520;13.332;2023-02-20T10:10:41;101042.16;;;10.01;63.56
19096;BME280;9680;52.520;13.332;2023-02-20T10:13:27;101040.16;;;10.10;63.78
19096;BME280;9680;52.520;13.332;2023-02-20T10:16:02;101044.41;;;10.12;62.95
19096;BME280;9680;52.520;13.332;2023-02-20T10:18:42;101042.81;;;10.08;63.23
19096;BME280;9680;52.520;13.332;2023-02-20T10:21:19;101022.88;;;10.07;63.16
19096;BME280;9680;52.520;13.332;2023-02-20T10:23:57;101033.25;;;10.09;63.15
19096;BME280;9680;52.520;13.332;2023-02-20T10:26:29;101018.28;;;10.15;63.07
19096;BME280;9680;52.520;13.332;2023-02-20T10:29:04;101020.84;;;10.17;62.89
19096;BME280;9680;52.520;13.332;2023-02-20T10:31:39;101013.69;;;10.24;63.15
19096;BME280;9680;52.520;13.332;2023-02-20T10:34:13;101001.66;;;10.19;62.51
19096;BME280;9680;52.520;13.332;2023-02-20T10:36:44;101008.34;;;10.28;63.29
19096;BME280;9680;52.520;13.332;2023-02-20T10:39:14;101003.56;;;10.43;62.38
19096;BME280;9680;52.520;13.332;2023-02-20T10:41:43;100993.03;;;10.46;61.68
19096;BME280;9680;52.520;13.332;2023-02-20T10:44:19;100982.31;;;10.55;62.36
19096;BME280;9680;52.520;13.332;2023-02-20T10:46:52;100990.13;;;10.81;62.22
19096;BME280;9680;52.520;13.332;2023-02-20T10:49:32;100980.09;;;10.95;61.06
19096;BME280;9680;52.520;13.332;2023-02-20T10:52:02;100971.38;;;10.96;60.22
19096;BME280;9680;52.520;13.332;2023-02-20T10:54:34;100957.63;;;10.91;61.23
19096;BME280;9680;52.520;13.332;2023-02-20T10:57:09;100965.75;;;11.07;61.02
19096;BME280;9680;52.520;13.332;2023-02-20T10:59:43;100946.31;;;11.16;61.19
19096;BME280;9680;52.520;13.332;2023-02-20T11:02:20;100953.56;;;11.31;60.83
19096;BME280;9680;52.520;13.332;2023-02-20T11:04:54;100950.16;;;11.29;59.70
19096;BME280;9680;52.520;13.332;2023-02-20T11:07:23;100950.44;;;11.21;59.96
19096;BME280;9680;52.520;13.332;2023-02-20T11:09:59;100955.53;;;11.01;60.56
19096;BME280;9680;52.520;13.332;2023-02-20T11:12:43;100960.44;;;10.85;61.05
19096;BME280;9680;52.520;13.332;2023-02-20T11:15:23;100946.22;;;10.70;61.75
19096;BME280;9680;52.520;13.332;2023-02-20T11:18:15;100969.25;;;10.57;62.09
19096;BME280;9680;52.520;13.332;2023-02-20T11:20:56;100954.63;;;10.78;62.84
19096;BME280;9680;52.520;13.332;2023-02-20T11:23:36;100958.28;;;10.72;62.48
19096;BME280;9680;52.520;13.332;2023-02-20T11:26:27;100960.88;;;10.72;62.88
19096;BME280;9680;52.520;13.332;2023-02-20T11:29:10;100959.81;;;10.78;62.89
19096;BME280;9680;52.520;13.332;2023-02-20T11:31:40;100959.06;;;10.74;63.07
19096;BME280;9680;52.520;13.332;2023-02-20T11:34:14;100963.88;;;10.61;63.55
19096;BME280;9680;52.520;13.332;2023-02-20T11:36:45;100958.22;;;10.48;64.56
19096;BME280;9680;52.520;13.332;2023-02-20T11:39:21;100951.78;;;10.59;64.58
19096;BME280;9680;52.520;13.332;2023-02-20T11:42:02;100951.94;;;10.54;64.72
19096;BME280;9680;52.520;13.332;2023-02-20T11:44:29;100949.63;;;10.46;64.67
19096;BME280;9680;52.520;13.332;2023-02-20T11:47:25;100955.03;;;10.40;65.27
19096;BME280;9680;52.520;13.332;2023-02-20T11:50:12;100949.16;;;10.33;65.88
19096;BME280;9680;52.520;13.332;2023-02-20T11:52:57;100948.09;;;10.39;65.74
19096;BME280;9680;52.520;13.332;2023-02-20T11:55:25;100948.75;;;10.46;66.07
19096;BME280;9680;52.520;13.332;2023-02-20T11:57:53;100938.22;;;10.49;65.92
19096;BME280;9680;52.520;13.332;2023-02-20T12:00:23;100964.38;;;10.46;66.40
19096;BME280;9680;52.520;13.332;2023-02-20T12:02:54;100956.00;;;10.36;66.64
19096;BME280;9680;52.520;13.332;2023-02-20T12:05:35;100931.25;;;10.23;67.68
19096;BME280;9680;52.520;13.332;2023-02-20T12:08:21;100956.41;;;10.24;67.92
19096;BME280;9680;52.520;13.332;2023-02-20T12:10:51;100929.78;;;10.15;68.53
19096;BME280;9680;52.520;13.332;2023-02-20T12:13:19;100939.28;;;10.16;68.77
19096;BME280;9680;52.520;13.332;2023-02-20T12:15:50;100940.09;;;10.18;69.20
19096;BME280;9680;52.520;13.332;2023-02-20T12:18:32;100931.88;;;10.31;68.86
19096;BME280;9680;52.520;13.332;2023-02-20T12:21:12;100933.22;;;10.43;68.53
19096;BME280;9680;52.520;13.332;2023-02-20T12:23:55;100948.53;;;10.52;68.03
19096;BME280;9680;52.520;13.332;2023-02-20T12:26:33;100939.53;;;10.62;68.18
19096;BME280;9680;52.520;13.332;2023-02-20T12:29:17;100949.22;;;10.57;67.60
19096;BME280;9680;52.520;13.332;2023-02-20T12:31:53;100952.53;;;10.35;68.35
19096;BME280;9680;52.520;13.332;2023-02-20T12:34:32;100939.06;;;10.23;69.34
19096;BME280;9680;52.520;13.332;2023-02-20T12:37:10;100938.84;;;10.30;69.18
19096;BME280;9680;52.520;13.332;2023-02-20T12:39:51;100939.59;;;10.34;69.08
19096;BME280;9680;52.520;13.332;2023-02-20T12:42:27;100932.69;;;10.33;69.32
19096;BME280;9680;52.520;13.332;2023-02-20T12:45:17;100935.41;;;10.30;69.53
19096;BME280;9680;52.520;13.332;2023-02-20T12:47:54;100931.16;;;10.26;69.71
19096;BME280;9680;52.520;13.332;2023-02-20T12:53:30;100923.28;;;10.29;69.92
19096;BME280;9680;52.520;13.332;2023-02-20T12:56:23;100932.78;;;10.30;70.39
19096;BME280;9680;52.520;13.332;2023-02-20T12:58:57;100930.56;;;10.17;70.63
19096;BME280;9680;52.520;13.332;2023-02-20T13:01:25;100940.38;;;10.09;71.25
19096;BME280;9680;52.520;13.332;2023-02-20T13:03:59;100925.94;;;10.00;72.02
19096;BME280;9680;52.520;13.332;2023-02-20T13:06:33;100939.16;;;9.94;72.64
19096;BME280;9680;52.520;13.332;2023-02-20T13:09:10;100937.53;;;9.90;73.04
19096;BME280;9680;52.520;13.332;2023-02-20T13:11:46;100955.19;;;9.80;74.40
19096;BME280;9680;52.520;13.332;2023-02-20T13:14:24;100933.19;;;9.62;75.37
19096;BME280;9680;52.520;13.332;2023-02-20T13:17:00;100922.91;;;9.57;75.87
19096;BME280;9680;52.520;13.332;2023-02-20T13:19:34;100943.50;;;9.65;76.20
19096;BME280;9680;52.520;13.332;2023-02-20T13:22:03;100932.53;;;9.55;76.65
19096;BME280;9680;52.520;13.332;2023-02-20T13:24:32;100933.41;;;9.54;77.08
19096;BME280;9680;52.520;13.332;2023-02-20T13:27:02;100936.00;;;9.56;77.23